createdAt,value
2018-01-12T00:00:30.109Z,158.90
2018-01-12T00:01:32.635Z,133.63
2018-01-12T00:02:35.154Z,135.52
2018-01-12T00:03:37.648Z,136.25
2018-01-12T00:04:40.147Z,139.15
2018-01-12T00:05:42.681Z,131.12
2018-01-12T00:06:45.970Z,129.70
2018-01-12T00:07:49.266Z,122.05
2018-01-12T00:08:52.524Z,116.82
2018-01-12T00:09:55.023Z,112.47
2018-01-12T00:10:58.350Z,107.57
2018-01-12T00:12:00.880Z,101.47
2018-01-12T00:13:03.391Z,107.78
2018-01-12T00:14:05.902Z,96.35
2018-01-12T00:15:08.414Z,100.10
2018-01-12T00:16:11.673Z,92.72
2018-01-12T00:18:39.949Z,73.32
2018-01-12T00:19:42.681Z,76.62
2018-01-12T00:20:45.294Z,70.90
2018-01-12T00:21:47.929Z,73.12
2018-01-12T00:22:50.597Z,68.40
2018-01-12T00:23:53.221Z,66.40
2018-01-12T00:24:55.917Z,63.65
2018-01-12T00:25:59.293Z,56.95
2018-01-12T00:27:01.906Z,63.87
2018-01-12T00:28:04.537Z,69.28
2018-01-12T00:29:07.190Z,67.50
2018-01-12T00:30:09.799Z,52.10
2018-01-12T00:31:13.184Z,58.70
2018-01-12T00:32:17.795Z,57.53
2018-01-12T00:33:20.413Z,59.08
2018-01-12T00:34:23.027Z,58.67
2018-01-12T00:35:25.672Z,60.50
2018-01-12T00:36:28.318Z,59.60
2018-01-12T00:37:30.958Z,59.88
2018-01-12T00:38:33.594Z,55.38
2018-01-12T00:39:36.249Z,57.67
2018-01-12T00:40:39.029Z,56.22
2018-01-12T00:41:41.692Z,56.70
2018-01-12T00:42:44.357Z,56.92
2018-01-12T00:43:47.764Z,49.08
2018-01-12T00:44:50.393Z,60.65
2018-01-12T00:45:53.062Z,54.85
2018-01-12T00:46:55.704Z,57.20
2018-01-12T00:47:59.104Z,53.40
2018-01-12T00:49:01.815Z,58.42
2018-01-12T00:50:04.489Z,51.20
2018-01-12T00:51:07.952Z,48.63
2018-01-12T00:52:10.612Z,52.90
2018-01-12T00:53:13.263Z,49.63
2018-01-12T00:54:15.942Z,52.30
2018-01-12T00:55:19.261Z,51.17
2018-01-12T00:56:21.938Z,47.08
2018-01-12T00:57:24.606Z,49.72
2018-01-12T00:58:27.255Z,48.95
2018-01-12T00:59:30.517Z,48.78
2018-01-12T01:00:33.816Z,43.08
2018-01-12T01:01:36.337Z,51.63
2018-01-12T01:02:38.862Z,49.80
2018-01-12T01:03:42.132Z,46.58
2018-01-12T01:04:44.639Z,44.30
2018-01-12T01:05:47.141Z,36.65
2018-01-12T01:06:50.415Z,39.83
2018-01-12T01:07:52.950Z,42.40
2018-01-12T01:08:55.448Z,42.75
2018-01-12T01:09:57.950Z,42.55
2018-01-12T01:11:00.461Z,39.13
2018-01-12T01:12:02.999Z,42.20
2018-01-12T01:13:05.505Z,42.78
2018-01-12T01:14:08.000Z,44.33
2018-01-12T01:15:11.256Z,41.50
2018-01-12T01:16:13.756Z,34.92
2018-01-12T01:17:16.277Z,36.10
2018-01-12T01:18:18.803Z,35.80
2018-01-12T01:19:22.068Z,41.28
2018-01-12T01:20:24.568Z,37.72
2018-01-12T01:21:27.830Z,38.28
2018-01-12T01:22:30.344Z,35.70
2018-01-12T01:23:32.859Z,35.55
2018-01-12T01:24:35.343Z,40.00
2018-01-12T01:25:37.844Z,35.55
2018-01-12T01:26:40.346Z,37.33
2018-01-12T01:27:42.853Z,37.95
2018-01-12T01:28:45.362Z,36.67
2018-01-12T01:29:47.868Z,41.30
2018-01-12T01:30:50.377Z,39.50
2018-01-12T01:31:53.647Z,36.45
2018-01-12T01:32:56.151Z,34.78
2018-01-12T01:33:58.675Z,37.63
2018-01-12T01:35:01.174Z,41.70
2018-01-12T01:36:04.454Z,36.22
2018-01-12T01:37:06.964Z,35.03
2018-01-12T01:38:09.470Z,40.17
2018-01-12T01:39:11.976Z,38.28
2018-01-12T01:40:15.235Z,37.65
2018-01-12T01:41:17.734Z,33.33
2018-01-12T01:42:20.991Z,39.22
2018-01-12T01:43:23.481Z,34.78
2018-01-12T01:44:26.010Z,36.05
2018-01-12T01:45:28.508Z,36.78
2018-01-12T01:46:31.004Z,35.83
2018-01-12T01:47:34.277Z,34.97
2018-01-12T01:48:41.957Z,37.80
2018-01-12T01:49:44.471Z,40.75
2018-01-12T01:50:46.977Z,37.63
2018-01-12T01:51:49.472Z,35.40
2018-01-12T01:52:52.757Z,40.15
2018-01-12T01:53:55.248Z,33.80
2018-01-12T01:54:57.790Z,35.15
2018-01-12T01:56:00.301Z,34.58
2018-01-12T01:57:03.570Z,35.63
2018-01-12T01:58:06.065Z,32.35
2018-01-12T01:59:09.310Z,35.20
2018-01-12T02:00:11.841Z,35.22
2018-01-12T02:01:14.333Z,33.58
2018-01-12T02:02:16.843Z,32.10
2018-01-12T02:03:19.331Z,31.92
2018-01-12T02:04:22.619Z,32.67
2018-01-12T02:05:26.172Z,34.22
2018-01-12T02:06:28.673Z,33.83
2018-01-12T02:07:31.164Z,33.25
2018-01-12T02:08:34.438Z,39.90
2018-01-12T02:09:37.700Z,41.88
2018-01-12T02:10:40.216Z,32.72
2018-01-12T02:11:42.705Z,32.72
2018-01-12T02:12:45.200Z,41.72
2018-01-12T02:13:47.687Z,38.50
2018-01-12T02:14:50.180Z,31.73
2018-01-12T02:15:53.484Z,40.42
2018-01-12T02:16:55.995Z,35.40
2018-01-12T02:17:58.482Z,39.83
2018-01-12T02:19:00.991Z,34.03
2018-01-12T02:20:04.258Z,40.58
2018-01-12T02:21:07.544Z,35.78
2018-01-12T02:22:10.061Z,34.53
2018-01-12T02:23:12.578Z,34.00
2018-01-12T02:24:15.082Z,37.85
2018-01-12T02:25:17.575Z,32.30
2018-01-12T02:26:20.064Z,34.90
2018-01-12T02:27:22.550Z,40.88
2018-01-12T02:28:25.060Z,39.40
2018-01-12T02:29:27.552Z,33.25
2018-01-12T02:30:30.053Z,32.88
2018-01-12T02:31:32.556Z,36.80
2018-01-12T02:32:35.829Z,36.50
2018-01-12T02:33:38.325Z,35.42
2018-01-12T02:34:40.817Z,30.62
2018-01-12T02:35:43.319Z,32.50
2018-01-12T02:36:45.832Z,32.08
2018-01-12T02:37:49.121Z,31.83
2018-01-12T02:38:51.926Z,35.30
2018-01-12T02:39:55.522Z,39.80
2018-01-12T02:40:58.781Z,33.92
2018-01-12T02:42:02.079Z,37.55
2018-01-12T02:43:04.689Z,40.15
2018-01-12T02:44:07.201Z,40.63
2018-01-12T02:45:09.706Z,38.67
2018-01-12T02:46:13.363Z,39.13
2018-01-12T02:47:16.719Z,37.20
2018-01-12T02:48:19.247Z,37.60
2018-01-12T02:49:21.741Z,37.72
2018-01-12T02:50:25.000Z,41.35
2018-01-12T02:51:27.481Z,38.22
2018-01-12T02:52:30.701Z,36.00
2018-01-12T02:53:33.915Z,41.15
2018-01-12T02:54:36.424Z,40.38
2018-01-12T02:55:38.901Z,38.03
2018-01-12T02:56:41.380Z,40.67
2018-01-12T02:57:44.630Z,38.60
2018-01-12T02:58:47.096Z,38.88
2018-01-12T02:59:49.583Z,39.00
2018-01-12T03:00:52.077Z,40.83
2018-01-12T03:01:54.550Z,40.33
2018-01-12T03:02:57.805Z,37.92
2018-01-12T03:04:00.326Z,40.63
2018-01-12T03:05:02.852Z,36.95
2018-01-12T03:06:05.323Z,39.15
2018-01-12T03:07:07.809Z,37.58
2018-01-12T03:08:10.381Z,42.40
2018-01-12T03:09:12.858Z,35.22
2018-01-12T03:10:15.378Z,40.45
2018-01-12T03:11:17.869Z,34.20
2018-01-12T03:12:20.352Z,34.67
2018-01-12T03:13:22.840Z,42.95
2018-01-12T03:14:25.314Z,38.35
2018-01-12T03:15:28.799Z,34.35
2018-01-12T03:16:31.280Z,36.90
2018-01-12T03:17:34.527Z,41.00
2018-01-12T03:18:37.016Z,36.85
2018-01-12T03:19:39.514Z,37.17
2018-01-12T03:20:42.009Z,35.10
2018-01-12T03:21:44.502Z,39.03
2018-01-12T03:22:46.978Z,36.35
2018-01-12T03:23:49.477Z,39.10
2018-01-12T03:24:51.953Z,37.03
2018-01-12T03:25:55.198Z,40.28
2018-01-12T03:26:57.746Z,36.80
2018-01-12T03:28:00.239Z,37.47
2018-01-12T03:29:02.715Z,38.50
2018-01-12T03:30:05.202Z,38.67
2018-01-12T03:31:07.695Z,36.97
2018-01-12T03:32:11.097Z,36.60
2018-01-12T03:33:13.604Z,34.10
2018-01-12T03:34:16.084Z,38.30
2018-01-12T03:35:18.571Z,39.78
2018-01-12T03:36:21.067Z,37.05
2018-01-12T03:37:24.325Z,38.90
2018-01-12T03:38:26.811Z,34.97
2018-01-12T03:39:29.803Z,43.78
2018-01-12T03:40:32.291Z,36.75
2018-01-12T03:41:34.781Z,37.65
2018-01-12T03:42:37.278Z,37.97
2018-01-12T03:43:39.757Z,36.50
2018-01-12T03:44:42.245Z,38.35
2018-01-12T03:45:44.732Z,36.35
2018-01-12T03:46:47.974Z,39.42
2018-01-12T03:47:51.130Z,43.75
2018-01-12T03:48:53.627Z,40.03
2018-01-12T03:49:56.157Z,38.60
2018-01-12T03:50:59.404Z,43.72
2018-01-12T03:52:01.920Z,37.30
2018-01-12T03:53:04.405Z,39.90
2018-01-12T03:54:06.884Z,42.85
2018-01-12T03:55:09.370Z,52.00
2018-01-12T03:56:11.917Z,42.90
2018-01-12T03:57:14.414Z,37.38
2018-01-12T03:58:16.907Z,39.33
2018-01-12T03:59:19.381Z,39.92
2018-01-12T04:00:21.861Z,46.20
2018-01-12T04:01:24.342Z,39.72
2018-01-12T04:02:28.197Z,39.10
2018-01-12T04:03:30.677Z,41.42
2018-01-12T04:04:33.160Z,38.88
2018-01-12T04:05:36.465Z,47.42
2018-01-12T04:06:38.959Z,44.58
2018-01-12T04:07:41.454Z,39.45
2018-01-12T04:08:43.949Z,39.47
2018-01-12T04:09:46.439Z,43.83
2018-01-12T04:10:48.928Z,39.38
2018-01-12T04:11:51.430Z,39.20
2018-01-12T04:12:53.911Z,37.80
2018-01-12T04:13:56.385Z,43.30
2018-01-12T04:14:58.924Z,42.50
2018-01-12T04:16:01.404Z,41.10
2018-01-12T04:17:03.905Z,42.80
2018-01-12T04:18:06.421Z,42.47
2018-01-12T04:19:09.680Z,36.10
2018-01-12T04:20:12.177Z,41.58
2018-01-12T04:21:14.664Z,40.03
2018-01-12T04:22:17.905Z,42.35
2018-01-12T04:23:20.518Z,40.70
2018-01-12T04:24:24.264Z,37.33
2018-01-12T04:25:27.698Z,44.28
2018-01-12T04:26:30.192Z,37.70
2018-01-12T04:27:32.681Z,42.78
2018-01-12T04:28:35.179Z,36.10
2018-01-12T04:29:37.660Z,37.13
2018-01-12T04:30:40.516Z,40.17
2018-01-12T04:31:42.994Z,45.20
2018-01-12T04:32:45.470Z,43.00
2018-01-12T04:33:48.844Z,37.85
2018-01-12T04:34:51.333Z,39.97
2018-01-12T04:35:53.829Z,38.70
2018-01-12T04:36:56.305Z,39.88
2018-01-12T04:37:59.549Z,42.80
2018-01-12T04:39:02.044Z,41.17
2018-01-12T04:40:04.557Z,39.75
2018-01-12T04:41:07.044Z,43.33
2018-01-12T04:42:09.538Z,39.70
2018-01-12T04:43:12.014Z,42.95
2018-01-12T04:44:14.506Z,38.47
2018-01-12T04:45:17.462Z,40.85
2018-01-12T04:46:19.967Z,39.65
2018-01-12T04:47:22.457Z,43.87
2018-01-12T04:48:24.937Z,37.38
2018-01-12T04:49:27.426Z,43.53
2018-01-12T04:50:29.935Z,43.35
2018-01-12T04:51:32.434Z,43.25
2018-01-12T04:52:35.689Z,40.92
2018-01-12T04:53:38.183Z,44.17
2018-01-12T04:54:41.438Z,43.17
2018-01-12T04:55:43.918Z,37.13
2018-01-12T04:56:47.276Z,37.38
2018-01-12T04:57:49.764Z,43.70
2018-01-12T04:58:52.253Z,43.20
2018-01-12T04:59:54.729Z,41.45
2018-01-12T05:00:58.001Z,46.92
2018-01-12T05:02:00.512Z,40.53
2018-01-12T05:03:03.786Z,41.25
2018-01-12T05:04:06.272Z,42.55
2018-01-12T05:05:08.775Z,43.03
2018-01-12T05:06:11.276Z,40.47
2018-01-12T05:07:13.821Z,44.35
2018-01-12T05:21:16.386Z,49.50
2018-01-12T05:22:18.911Z,50.67
2018-01-12T05:23:21.402Z,48.97
2018-01-12T05:24:23.911Z,48.67
2018-01-12T05:25:26.405Z,46.45
2018-01-12T05:26:29.675Z,56.53
2018-01-12T05:27:32.171Z,53.03
2018-01-12T05:28:35.429Z,49.15
2018-01-12T05:29:37.930Z,49.90
2018-01-12T05:30:41.197Z,49.30
2018-01-12T05:31:43.704Z,50.40
2018-01-12T05:32:46.198Z,53.03
2018-01-12T05:33:48.689Z,56.20
2018-01-12T05:34:51.192Z,44.22
2018-01-12T05:35:54.445Z,49.30
2018-01-12T05:36:57.725Z,54.72
2018-01-12T05:38:00.226Z,49.30
2018-01-12T05:39:02.716Z,51.50
2018-01-12T05:40:05.215Z,51.20
2018-01-12T05:41:07.737Z,52.33
2018-01-12T05:42:11.003Z,55.55
2018-01-12T05:43:13.502Z,49.92
2018-01-12T05:44:16.784Z,49.85
2018-01-12T05:45:20.227Z,55.15
2018-01-12T05:46:22.726Z,56.63
2018-01-12T05:47:25.222Z,55.80
2018-01-12T05:48:28.480Z,48.47
2018-01-12T05:49:31.644Z,59.50
2018-01-12T05:50:34.162Z,52.42
2018-01-12T05:51:36.655Z,52.97
2018-01-12T05:52:39.169Z,48.03
2018-01-12T05:53:41.679Z,53.10
2018-01-12T05:54:44.943Z,58.58
2018-01-12T05:55:47.470Z,56.65
2018-01-12T05:56:49.987Z,61.30
2018-01-12T05:57:52.518Z,58.53
2018-01-12T05:58:55.004Z,63.53
2018-01-12T05:59:57.503Z,60.63
2018-01-12T06:01:11.900Z,58.90
2018-01-12T06:02:26.344Z,64.95
2018-01-12T06:03:40.698Z,58.40
2018-01-12T06:04:55.058Z,53.60
2018-01-12T06:06:19.279Z,56.45
2018-01-12T06:07:23.286Z,60.35
2018-01-12T06:08:25.794Z,60.58
2018-01-12T06:09:28.286Z,65.37
2018-01-12T06:10:30.783Z,68.55
2018-01-12T06:11:33.288Z,58.72
2018-01-12T06:12:37.018Z,64.60
2018-01-12T06:13:39.547Z,67.03
2018-01-12T06:14:42.821Z,59.75
2018-01-12T06:15:45.318Z,61.70
2018-01-12T06:16:48.576Z,70.25
2018-01-12T06:17:51.072Z,76.93
2018-01-12T06:18:54.347Z,70.90
2018-01-12T06:19:56.842Z,76.43
2018-01-12T06:20:59.331Z,65.10
2018-01-12T06:22:01.834Z,73.55
2018-01-12T06:23:04.321Z,67.00
2018-01-12T06:24:06.847Z,68.12
2018-01-12T06:25:09.344Z,63.85
2018-01-12T06:26:11.847Z,73.80
2018-01-12T06:27:15.126Z,69.00
2018-01-12T06:28:17.645Z,79.78
2018-01-12T06:29:20.931Z,67.97
2018-01-12T06:30:23.430Z,75.12
2018-01-12T06:31:29.758Z,67.90
2018-01-12T06:32:32.311Z,68.03
2018-01-12T06:33:35.578Z,63.70
2018-01-12T06:34:38.072Z,78.55
2018-01-12T06:35:41.345Z,65.05
2018-01-12T06:36:43.848Z,74.82
2018-01-12T06:37:46.355Z,65.15
2018-01-12T06:38:48.862Z,67.72
2018-01-12T06:39:51.377Z,70.68
2018-01-12T06:40:53.887Z,67.53
2018-01-12T06:41:56.393Z,63.78
2018-01-12T06:42:58.888Z,65.43
2018-01-12T06:44:01.410Z,65.47
2018-01-12T06:45:03.917Z,74.10
2018-01-12T06:46:06.413Z,65.25
2018-01-12T06:47:08.912Z,66.75
2018-01-12T06:48:11.421Z,64.20
2018-01-12T06:49:13.947Z,64.53
2018-01-12T06:50:16.467Z,64.47
2018-01-12T06:51:18.980Z,68.15
2018-01-12T06:52:22.242Z,73.30
2018-01-12T06:53:24.738Z,54.90
2018-01-12T06:54:27.258Z,76.55
2018-01-12T06:55:29.752Z,70.82
2018-01-12T06:56:32.255Z,75.37
2018-01-12T06:57:34.751Z,76.93
2018-01-12T06:58:38.010Z,67.80
2018-01-12T06:59:40.513Z,82.90
2018-01-12T07:00:43.815Z,71.53
2018-01-12T07:01:46.356Z,73.60
2018-01-12T07:02:48.855Z,74.28
2018-01-12T07:03:51.354Z,74.10
2018-01-12T07:04:53.844Z,80.45
2018-01-12T07:05:56.419Z,79.43
2018-01-12T07:06:59.041Z,75.30
2018-01-12T07:08:01.553Z,86.07
2018-01-12T07:09:04.085Z,83.32
2018-01-12T07:10:06.616Z,71.25
2018-01-12T07:11:09.121Z,81.32
2018-01-12T07:12:11.626Z,68.65
2018-01-12T07:13:14.150Z,80.43
2018-01-12T07:14:17.431Z,85.95
2018-01-12T07:15:20.691Z,70.50
2018-01-12T07:16:23.190Z,79.35
2018-01-12T07:17:26.467Z,71.47
2018-01-12T07:18:28.967Z,81.95
2018-01-12T07:19:31.455Z,77.15
2018-01-12T07:20:45.826Z,88.10
2018-01-12T07:22:00.182Z,89.35
2018-01-12T07:23:14.730Z,80.62
2018-01-12T07:24:17.232Z,83.32
2018-01-12T07:25:19.730Z,97.22
2018-01-12T07:26:22.220Z,96.53
2018-01-12T07:27:24.709Z,85.45
2018-01-12T07:28:27.223Z,79.78
2018-01-12T07:29:30.498Z,75.97
2018-01-12T07:30:33.820Z,94.07
2018-01-12T07:31:42.398Z,79.93
2018-01-12T07:32:48.334Z,86.57
2018-01-12T07:33:51.973Z,76.57
2018-01-12T07:34:54.596Z,82.95
2018-01-12T07:35:57.121Z,88.65
2018-01-12T07:36:59.604Z,91.00
2018-01-12T07:38:02.334Z,87.90
2018-01-12T07:39:05.645Z,76.37
2018-01-12T07:40:08.890Z,81.03
2018-01-12T07:41:11.382Z,82.62
2018-01-12T07:42:13.863Z,83.12
2018-01-12T07:43:17.148Z,88.30
2018-01-12T07:44:20.437Z,81.03
2018-01-12T07:45:23.709Z,94.35
2018-01-12T07:46:26.281Z,84.32
2018-01-12T07:47:28.778Z,76.32
2018-01-12T07:48:31.266Z,83.00
2018-01-12T07:49:33.780Z,80.80
2018-01-12T07:50:36.283Z,84.13
2018-01-12T07:51:39.534Z,88.82
2018-01-12T07:52:48.619Z,78.93
2018-01-12T07:53:51.181Z,76.87
2018-01-12T07:54:53.674Z,86.45
2018-01-12T07:55:56.168Z,82.95
2018-01-12T07:56:59.436Z,85.65
2018-01-12T07:58:02.006Z,80.22
2018-01-12T07:59:04.537Z,96.00
2018-01-12T08:00:07.803Z,80.40
2018-01-12T08:01:16.689Z,80.78
2018-01-12T08:02:25.019Z,99.50
2018-01-12T08:03:27.537Z,88.45
2018-01-12T08:04:30.035Z,98.00
2018-01-12T08:05:32.552Z,93.57
2018-01-12T08:06:35.811Z,96.50
2018-01-12T08:07:38.297Z,94.87
2018-01-12T08:08:40.816Z,94.90
2018-01-12T08:09:43.383Z,98.20
2018-01-12T08:10:45.893Z,91.28
2018-01-12T08:11:48.398Z,92.80
2018-01-12T08:12:51.703Z,90.57
2018-01-12T08:13:54.964Z,90.85
2018-01-12T08:14:58.283Z,95.87
2018-01-12T08:16:00.772Z,86.35
2018-01-12T08:17:03.269Z,92.43
2018-01-12T08:18:05.772Z,87.18
2018-01-12T08:19:09.031Z,84.78
2018-01-12T08:20:11.534Z,89.97
2018-01-12T08:21:14.816Z,94.05
2018-01-12T08:22:18.100Z,76.65
2018-01-12T08:23:20.582Z,76.62
2018-01-12T08:24:23.916Z,79.57
2018-01-12T08:25:26.559Z,74.93
2018-01-12T08:26:29.131Z,78.10
2018-01-12T08:27:31.653Z,77.10
2018-01-12T08:28:34.175Z,68.25
2018-01-12T08:29:36.695Z,84.00
2018-01-12T08:30:39.197Z,82.32
2018-01-12T08:31:42.464Z,78.35
2018-01-12T08:32:44.978Z,79.35
2018-01-12T08:33:47.502Z,84.03
2018-01-12T08:34:49.988Z,76.62
2018-01-12T08:35:53.247Z,76.43
2018-01-12T08:36:55.757Z,81.87
2018-01-12T08:37:59.047Z,83.47
2018-01-12T08:39:02.325Z,82.53
2018-01-12T08:40:05.586Z,77.57
2018-01-12T08:41:08.109Z,78.37
2018-01-12T08:42:10.598Z,72.55
2018-01-12T08:43:13.121Z,86.47
2018-01-12T08:44:16.451Z,76.90
2018-01-12T08:45:19.701Z,83.50
2018-01-12T08:46:23.004Z,78.60
2018-01-12T08:47:25.514Z,81.63
2018-01-12T08:48:28.015Z,68.18
2018-01-12T08:49:30.620Z,72.45
2018-01-12T08:50:33.120Z,76.45
2018-01-12T08:51:35.605Z,70.70
2018-01-12T08:52:38.089Z,80.43
2018-01-12T08:53:40.593Z,83.80
2018-01-12T08:54:43.852Z,84.53
2018-01-12T08:55:46.350Z,79.00
2018-01-12T08:56:49.609Z,78.82
2018-01-12T08:57:52.090Z,76.72
2018-01-12T08:58:54.597Z,77.43
2018-01-12T08:59:57.110Z,70.70
2018-01-12T09:00:59.611Z,71.53
2018-01-12T09:02:02.869Z,75.37
2018-01-12T09:03:05.364Z,76.07
2018-01-12T09:04:08.647Z,75.00
2018-01-12T09:05:11.911Z,74.82
2018-01-12T09:06:14.401Z,65.07
2018-01-12T09:07:16.903Z,61.13
2018-01-12T09:08:19.406Z,60.45
2018-01-12T09:09:21.922Z,63.83
2018-01-12T09:10:25.185Z,63.90
2018-01-12T09:11:28.439Z,69.55
2018-01-12T09:12:30.952Z,66.43
2018-01-12T09:13:45.378Z,60.85
2018-01-12T09:14:56.678Z,56.50
2018-01-12T09:16:06.089Z,57.47
2018-01-12T09:17:08.602Z,66.85
2018-01-12T09:18:23.812Z,60.63
2018-01-12T09:19:40.176Z,71.35
2018-01-12T09:20:43.451Z,59.78
2018-01-12T09:21:45.983Z,61.55
2018-01-12T09:22:48.486Z,58.10
2018-01-12T09:23:56.052Z,58.63
2018-01-12T09:24:58.543Z,66.53
2018-01-12T09:26:01.145Z,62.55
2018-01-12T09:27:03.647Z,58.22
2018-01-12T09:28:06.146Z,69.15
2018-01-12T09:29:08.650Z,66.03
2018-01-12T09:30:11.154Z,62.60
2018-01-12T09:31:13.658Z,61.08
2018-01-12T09:32:17.083Z,60.65
2018-01-12T09:33:19.599Z,56.90
2018-01-12T09:34:34.170Z,64.40
2018-01-12T09:35:36.674Z,63.05
2018-01-12T09:36:39.949Z,71.78
2018-01-12T09:37:42.473Z,61.47
2018-01-12T09:38:51.767Z,52.60
2018-01-12T09:40:06.066Z,64.82
2018-01-12T09:41:08.622Z,65.93
2018-01-12T09:42:11.237Z,54.08
2018-01-12T09:43:13.740Z,64.05
2018-01-12T09:44:16.263Z,53.63
2018-01-12T09:45:18.905Z,65.30
2018-01-12T09:46:21.416Z,58.47
2018-01-12T09:47:24.691Z,63.42
2018-01-12T09:48:27.210Z,61.50
2018-01-12T09:49:29.718Z,60.47
2018-01-12T09:50:32.218Z,60.47
2018-01-12T09:51:35.497Z,72.15
2018-01-12T09:52:38.002Z,60.53
2018-01-12T09:53:40.501Z,58.38
2018-01-12T09:54:43.010Z,61.60
2018-01-12T09:55:45.515Z,60.95
2018-01-12T09:56:48.013Z,60.85
2018-01-12T09:57:50.517Z,66.60
2018-01-12T09:58:53.125Z,69.15
2018-01-12T09:59:58.607Z,60.35
2018-01-12T10:01:02.971Z,68.20
2018-01-12T10:02:06.251Z,62.20
2018-01-12T10:03:09.533Z,59.80
2018-01-12T10:04:12.032Z,63.65
2018-01-12T10:05:14.554Z,58.42
2018-01-12T10:06:17.032Z,68.70
2018-01-12T10:07:19.583Z,68.28
2018-01-12T10:08:25.843Z,64.87
2018-01-12T10:09:30.262Z,63.13
2018-01-12T10:10:32.780Z,65.03
2018-01-12T10:11:36.041Z,69.75
2018-01-12T10:12:38.553Z,73.85
2018-01-12T10:13:41.064Z,69.35
2018-01-12T10:14:43.573Z,60.20
2018-01-12T10:15:46.860Z,77.22
2018-01-12T10:16:49.358Z,66.32
2018-01-12T10:17:56.427Z,66.72
2018-01-12T10:18:59.750Z,64.80
2018-01-12T10:20:17.121Z,74.95
2018-01-12T10:21:31.485Z,77.60
2018-01-12T10:22:33.986Z,66.53
2018-01-12T10:23:36.491Z,62.33
2018-01-12T10:24:38.977Z,74.12
2018-01-12T10:25:41.479Z,68.97
2018-01-12T10:26:44.749Z,67.32
2018-01-12T10:27:47.269Z,74.57
2018-01-12T10:29:01.590Z,69.35
2018-01-12T10:30:16.752Z,62.88
2018-01-12T10:31:19.267Z,66.10
2018-01-12T10:32:25.565Z,70.18
2018-01-12T10:35:18.956Z,76.65
2018-01-12T10:36:21.471Z,80.40
2018-01-12T10:37:23.964Z,81.05
2018-01-12T10:38:26.462Z,78.00
2018-01-12T10:39:28.984Z,70.28
2018-01-12T10:40:53.198Z,72.50
2018-01-12T10:42:02.614Z,64.55
2018-01-12T10:43:05.128Z,62.92
2018-01-12T10:44:07.672Z,62.78
2018-01-12T10:45:10.184Z,67.57
2018-01-12T10:46:36.187Z,67.12
2018-01-12T10:47:47.590Z,68.30
2018-01-12T10:48:57.315Z,59.33
2018-01-12T10:50:28.253Z,71.57
2018-01-12T10:51:38.416Z,63.25
2018-01-12T10:52:47.719Z,62.05
2018-01-12T10:53:50.244Z,60.25
2018-01-12T10:54:52.736Z,55.55
2018-01-12T10:55:55.269Z,63.05
2018-01-12T10:56:57.751Z,61.75
2018-01-12T10:58:00.282Z,54.13
2018-01-12T10:59:02.802Z,58.40
2018-01-12T11:00:05.332Z,62.80
2018-01-12T11:01:09.345Z,55.88
2018-01-12T11:02:12.647Z,51.53
2018-01-12T11:03:15.156Z,48.55
2018-01-12T11:04:17.650Z,52.80
2018-01-12T11:05:20.146Z,60.17
2018-01-12T11:06:23.425Z,51.78
2018-01-12T11:07:26.693Z,56.42
2018-01-12T11:08:29.195Z,67.35
2018-01-12T11:09:32.465Z,65.25
2018-01-12T11:10:35.738Z,69.35
2018-01-12T11:11:39.767Z,59.38
2018-01-12T11:12:43.053Z,58.22
2018-01-12T11:13:46.364Z,58.42
2018-01-12T11:15:58.553Z,74.20
2018-01-12T11:17:01.822Z,59.85
2018-01-12T11:18:04.432Z,68.12
2018-01-12T11:19:07.803Z,62.72
2018-01-12T11:20:10.428Z,62.72
2018-01-12T11:21:12.958Z,61.28
2018-01-12T11:22:16.222Z,63.03
2018-01-12T11:23:18.747Z,62.97
2018-01-12T11:24:21.259Z,68.15
2018-01-12T11:25:23.797Z,55.85
2018-01-12T11:26:26.293Z,69.22
2018-01-12T11:27:28.777Z,62.20
2018-01-12T11:28:31.295Z,67.05
2018-01-12T11:29:33.800Z,70.93
2018-01-12T11:30:36.300Z,70.15
2018-01-12T11:31:39.585Z,73.03
2018-01-12T11:32:42.087Z,80.93
2018-01-12T11:33:45.504Z,68.20
2018-01-12T11:34:48.004Z,67.75
2018-01-12T11:35:50.540Z,70.40
2018-01-12T11:36:53.054Z,75.65
2018-01-12T11:37:55.579Z,64.57
2018-01-12T11:38:58.067Z,60.95
2018-01-12T11:40:00.567Z,66.32
2018-01-12T11:41:03.827Z,59.63
2018-01-12T11:42:06.367Z,65.90
2018-01-12T11:43:08.936Z,59.97
2018-01-12T11:44:11.438Z,64.53
2018-01-12T11:45:14.188Z,58.60
2018-01-12T11:46:16.685Z,54.50
2018-01-12T11:47:19.252Z,60.65
2018-01-12T11:48:21.750Z,56.13
2018-01-12T11:49:24.323Z,68.28
2018-01-12T11:50:26.851Z,55.75
2018-01-12T11:51:30.121Z,58.72
2018-01-12T11:52:33.412Z,63.17
2018-01-12T11:53:35.973Z,56.33
2018-01-12T11:54:39.240Z,60.65
2018-01-12T11:55:41.871Z,62.92
2018-01-12T11:56:44.407Z,64.20
2018-01-12T11:57:47.721Z,61.22
2018-01-12T11:58:50.244Z,61.25
2018-01-12T11:59:52.754Z,63.03
2018-01-12T12:00:55.276Z,54.78
2018-01-12T12:01:57.794Z,60.00
2018-01-12T12:03:00.317Z,59.33
2018-01-12T12:04:02.939Z,55.75
2018-01-12T12:05:05.475Z,61.83
2018-01-12T12:06:08.732Z,65.68
2018-01-12T12:07:11.229Z,55.47
2018-01-12T12:08:13.834Z,67.80
2018-01-12T12:09:16.335Z,58.25
2018-01-12T12:10:18.841Z,58.65
2018-01-12T12:11:22.188Z,58.95
2018-01-12T12:12:25.718Z,54.58
2018-01-12T12:13:28.296Z,63.45
2018-01-12T12:14:30.853Z,63.25
2018-01-12T12:15:33.406Z,54.90
2018-01-12T12:16:35.915Z,56.25
2018-01-12T12:17:38.444Z,62.25
2018-01-12T12:18:40.963Z,67.47
2018-01-12T12:19:43.480Z,73.03
2018-01-12T12:20:46.011Z,67.60
2018-01-12T12:21:48.522Z,66.18
2018-01-12T12:22:51.041Z,69.50
2018-01-12T12:23:53.579Z,61.70
2018-01-12T12:24:56.846Z,65.87
2018-01-12T12:25:59.368Z,63.25
2018-01-12T12:27:01.885Z,69.37
2018-01-12T12:28:04.402Z,67.93
2018-01-12T12:29:06.898Z,72.87
2018-01-12T12:30:09.424Z,68.62
2018-01-12T12:31:12.726Z,79.78
2018-01-12T12:32:16.127Z,74.20
2018-01-12T12:33:18.711Z,67.20
2018-01-12T12:34:21.226Z,74.00
2018-01-12T12:35:23.751Z,76.85
2018-01-12T12:36:26.320Z,63.92
2018-01-12T12:37:28.877Z,72.57
2018-01-12T12:38:31.425Z,78.97
2018-01-12T12:39:34.722Z,69.35
2018-01-12T12:40:38.013Z,68.82
2018-01-12T12:41:41.310Z,65.95
2018-01-12T12:42:44.795Z,66.60
2018-01-12T12:43:48.067Z,64.47
2018-01-12T12:44:51.363Z,66.07
2018-01-12T12:45:53.881Z,66.28
2018-01-12T12:46:56.420Z,73.62
2018-01-12T12:47:59.684Z,78.00
2018-01-12T12:49:02.968Z,70.90
2018-01-12T12:50:05.482Z,65.95
2018-01-12T12:51:08.019Z,70.25
2018-01-12T12:52:10.565Z,70.72
2018-01-12T12:53:13.109Z,71.05
2018-01-12T12:54:15.652Z,68.35
2018-01-12T12:55:18.968Z,70.20
2018-01-12T12:56:21.493Z,77.68
2018-01-12T12:57:24.024Z,70.20
2018-01-12T12:58:26.541Z,73.53
2018-01-12T12:59:29.060Z,68.22
2018-01-12T13:00:31.620Z,66.68
2018-01-12T13:01:34.132Z,70.10
2018-01-12T13:02:36.694Z,75.87
2018-01-12T13:03:39.424Z,66.40
2018-01-12T13:04:42.713Z,70.55
2018-01-12T13:05:46.013Z,80.82
2018-01-12T13:06:48.627Z,75.80
2018-01-12T13:07:51.169Z,69.50
2018-01-12T13:08:53.701Z,68.95
2018-01-12T13:09:56.258Z,66.57
2018-01-12T13:10:59.526Z,76.30
2018-01-12T13:12:03.064Z,71.60
2018-01-12T13:13:05.599Z,71.85
2018-01-12T13:14:08.867Z,75.55
2018-01-12T13:15:11.358Z,75.72
2018-01-12T13:16:14.626Z,78.15
2018-01-12T13:17:17.248Z,79.57
2018-01-12T13:18:19.757Z,75.35
2018-01-12T13:19:22.295Z,70.05
2018-01-12T13:20:24.820Z,78.05
2018-01-12T13:21:27.354Z,83.97
2018-01-12T13:22:29.871Z,80.12
2018-01-12T13:23:33.289Z,73.10
2018-01-12T13:24:35.810Z,81.85
2018-01-12T13:25:38.314Z,64.53
2018-01-12T13:26:41.589Z,72.32
2018-01-12T13:27:45.703Z,77.45
2018-01-12T13:28:49.052Z,67.90
2018-01-12T13:29:51.562Z,68.55
2018-01-12T13:30:54.824Z,68.57
2018-01-12T13:31:57.386Z,70.32
2018-01-12T13:32:59.872Z,74.53
2018-01-12T13:34:03.884Z,78.37
2018-01-12T13:35:06.425Z,78.70
2018-01-12T13:36:08.936Z,78.43
2018-01-12T13:37:12.207Z,68.35
2018-01-12T13:38:15.484Z,81.43
2018-01-12T13:39:18.009Z,86.95
2018-01-12T13:40:20.556Z,73.28
2018-01-12T13:41:23.081Z,76.97
2018-01-12T13:42:25.587Z,68.97
2018-01-12T13:43:28.855Z,85.35
2018-01-12T13:44:31.378Z,88.05
2018-01-12T13:45:33.883Z,73.82
2018-01-12T13:46:36.411Z,85.90
2018-01-12T13:47:39.048Z,75.85
2018-01-12T13:48:41.561Z,77.32
2018-01-12T13:49:44.118Z,69.22
2018-01-12T13:50:47.375Z,72.97
2018-01-12T13:51:49.986Z,79.62